sensor_id;sensor_type;location;lat;lon;timestamp;P1;durP1;ratioP1;P2;durP2;ratioP2
59424;SDS011;45231;44.826;20.312;2023-04-24T00:00:50;15.70;;;8.60;;
59424;SDS011;45231;44.826;20.312;2023-04-24T00:03:17;17.55;;;8.98;;
59424;SDS011;45231;44.826;20.312;2023-04-24T00:05:45;15.10;;;7.75;;
59424;SDS011;45231;44.826;20.312;2023-04-24T00:08:12;14.70;;;6.78;;
59424;SDS011;45231;44.826;20.312;2023-04-24T00:10:38;13.00;;;7.13;;
59424;SDS011;45231;44.826;20.312;2023-04-24T00:13:04;12.68;;;7.03;;
59424;SDS011;45231;44.826;20.312;2023-04-24T00:15:30;14.18;;;7.72;;
59424;SDS011;45231;44.826;20.312;2023-04-24T00:17:56;11.75;;;6.65;;
59424;SDS011;45231;44.826;20.312;2023-04-24T00:20:22;13.70;;;6.70;;
59424;SDS011;45231;44.826;20.312;2023-04-24T00:22:49;12.43;;;6.38;;
59424;SDS011;45231;44.826;20.312;2023-04-24T00:25:15;13.40;;;6.90;;
59424;SDS011;45231;44.826;20.312;2023-04-24T00:27:41;13.07;;;7.85;;
59424;SDS011;45231;44.826;20.312;2023-04-24T00:30:07;14.77;;;7.70;;
59424;SDS011;45231;44.826;20.312;2023-04-24T00:32:33;12.95;;;7.10;;
59424;SDS011;45231;44.826;20.312;2023-04-24T00:34:59;10.18;;;6.68;;
59424;SDS011;45231;44.826;20.312;2023-04-24T00:37:25;13.18;;;6.55;;
59424;SDS011;45231;44.826;20.312;2023-04-24T00:39:51;9.80;;;6.70;;
59424;SDS011;45231;44.826;20.312;2023-04-24T00:42:17;10.63;;;6.85;;
59424;SDS011;45231;44.826;20.312;2023-04-24T00:44:43;11.77;;;6.82;;
59424;SDS011;45231;44.826;20.312;2023-04-24T00:47:10;13.65;;;7.75;;
59424;SDS011;45231;44.826;20.312;2023-04-24T00:49:36;11.30;;;7.00;;
59424;SDS011;45231;44.826;20.312;2023-04-24T00:52:02;11.70;;;7.50;;
59424;SDS011;45231;44.826;20.312;2023-04-24T00:54:34;13.02;;;8.15;;
59424;SDS011;45231;44.826;20.312;2023-04-24T00:57:00;10.75;;;7.35;;
59424;SDS011;45231;44.826;20.312;2023-04-24T00:59:26;10.60;;;7.13;;
59424;SDS011;45231;44.826;20.312;2023-04-24T01:01:52;15.60;;;7.65;;
59424;SDS011;45231;44.826;20.312;2023-04-24T01:04:18;11.43;;;7.47;;
59424;SDS011;45231;44.826;20.312;2023-04-24T01:06:45;11.73;;;7.38;;
59424;SDS011;45231;44.826;20.312;2023-04-24T01:09:12;12.38;;;7.55;;
59424;SDS011;45231;44.826;20.312;2023-04-24T01:11:40;12.05;;;7.45;;
59424;SDS011;45231;44.826;20.312;2023-04-24T01:14:08;12.52;;;7.13;;
59424;SDS011;45231;44.826;20.312;2023-04-24T01:16:34;13.32;;;7.60;;
59424;SDS011;45231;44.826;20.312;2023-04-24T01:19:00;14.23;;;7.35;;
59424;SDS011;45231;44.826;20.312;2023-04-24T01:21:27;14.77;;;8.07;;
59424;SDS011;45231;44.826;20.312;2023-04-24T01:23:56;13.25;;;7.55;;
59424;SDS011;45231;44.826;20.312;2023-04-24T01:26:22;13.30;;;7.60;;
59424;SDS011;45231;44.826;20.312;2023-04-24T01:28:50;16.63;;;7.25;;
59424;SDS011;45231;44.826;20.312;2023-04-24T01:31:17;11.52;;;7.72;;
59424;SDS011;45231;44.826;20.312;2023-04-24T01:33:43;10.40;;;7.13;;
59424;SDS011;45231;44.826;20.312;2023-04-24T01:36:10;14.80;;;7.95;;
59424;SDS011;45231;44.826;20.312;2023-04-24T01:38:37;12.68;;;7.53;;
59424;SDS011;45231;44.826;20.312;2023-04-24T01:41:03;11.43;;;7.10;;
59424;SDS011;45231;44.826;20.312;2023-04-24T01:43:29;12.27;;;8.10;;
59424;SDS011;45231;44.826;20.312;2023-04-24T01:45:55;11.68;;;7.88;;
59424;SDS011;45231;44.826;20.312;2023-04-24T01:48:21;14.63;;;8.13;;
59424;SDS011;45231;44.826;20.312;2023-04-24T01:50:48;12.27;;;7.68;;
59424;SDS011;45231;44.826;20.312;2023-04-24T01:53:14;13.45;;;7.90;;
59424;SDS011;45231;44.826;20.312;2023-04-24T01:55:40;13.60;;;7.88;;
59424;SDS011;45231;44.826;20.312;2023-04-24T01:58:06;13.13;;;8.40;;
59424;SDS011;45231;44.826;20.312;2023-04-24T02:00:32;13.45;;;8.13;;
59424;SDS011;45231;44.826;20.312;2023-04-24T02:02:58;12.65;;;8.18;;
59424;SDS011;45231;44.826;20.312;2023-04-24T02:05:26;12.00;;;8.00;;
59424;SDS011;45231;44.826;20.312;2023-04-24T02:07:53;11.95;;;8.02;;
59424;SDS011;45231;44.826;20.312;2023-04-24T02:10:19;11.75;;;7.18;;
59424;SDS011;45231;44.826;20.312;2023-04-24T02:12:46;12.77;;;7.30;;
59424;SDS011;45231;44.826;20.312;2023-04-24T02:15:12;13.18;;;7.53;;
59424;SDS011;45231;44.826;20.312;2023-04-24T02:17:38;12.38;;;7.55;;
59424;SDS011;45231;44.826;20.312;2023-04-24T02:20:05;12.27;;;7.85;;
59424;SDS011;45231;44.826;20.312;2023-04-24T02:22:31;13.50;;;7.85;;
59424;SDS011;45231;44.826;20.312;2023-04-24T02:24:57;10.30;;;7.80;;
59424;SDS011;45231;44.826;20.312;2023-04-24T02:27:23;10.50;;;7.22;;
59424;SDS011;45231;44.826;20.312;2023-04-24T02:29:49;9.82;;;7.13;;
59424;SDS011;45231;44.826;20.312;2023-04-24T02:32:15;10.27;;;7.00;;
59424;SDS011;45231;44.826;20.312;2023-04-24T02:34:41;13.05;;;7.22;;
59424;SDS011;45231;44.826;20.312;2023-04-24T02:37:07;10.93;;;7.13;;
59424;SDS011;45231;44.826;20.312;2023-04-24T02:39:33;12.57;;;7.55;;
59424;SDS011;45231;44.826;20.312;2023-04-24T02:41:59;11.43;;;6.77;;
59424;SDS011;45231;44.826;20.312;2023-04-24T02:44:26;11.10;;;6.60;;
59424;SDS011;45231;44.826;20.312;2023-04-24T02:46:52;9.23;;;6.40;;
59424;SDS011;45231;44.826;20.312;2023-04-24T02:49:18;9.63;;;6.37;;
59424;SDS011;45231;44.826;20.312;2023-04-24T02:51:44;10.03;;;6.43;;
59424;SDS011;45231;44.826;20.312;2023-04-24T02:54:10;13.03;;;6.83;;
59424;SDS011;45231;44.826;20.312;2023-04-24T02:56:36;9.17;;;6.43;;
59424;SDS011;45231;44.826;20.312;2023-04-24T02:59:02;13.13;;;6.70;;
59424;SDS011;45231;44.826;20.312;2023-04-24T03:01:29;10.52;;;6.65;;
59424;SDS011;45231;44.826;20.312;2023-04-24T03:03:55;11.50;;;6.43;;
59424;SDS011;45231;44.826;20.312;2023-04-24T03:06:21;10.35;;;6.35;;
59424;SDS011;45231;44.826;20.312;2023-04-24T03:08:47;12.10;;;7.55;;
59424;SDS011;45231;44.826;20.312;2023-04-24T03:11:14;11.93;;;7.60;;
59424;SDS011;45231;44.826;20.312;2023-04-24T03:13:40;10.37;;;7.27;;
59424;SDS011;45231;44.826;20.312;2023-04-24T03:16:06;10.97;;;6.90;;
59424;SDS011;45231;44.826;20.312;2023-04-24T03:18:32;13.23;;;7.27;;
59424;SDS011;45231;44.826;20.312;2023-04-24T03:20:58;10.13;;;7.05;;
59424;SDS011;45231;44.826;20.312;2023-04-24T03:23:24;10.50;;;7.28;;
59424;SDS011;45231;44.826;20.312;2023-04-24T03:25:50;11.73;;;7.20;;
59424;SDS011;45231;44.826;20.312;2023-04-24T03:28:16;11.45;;;7.10;;
59424;SDS011;45231;44.826;20.312;2023-04-24T03:30:42;11.93;;;7.75;;
59424;SDS011;45231;44.826;20.312;2023-04-24T03:33:08;12.07;;;7.38;;
59424;SDS011;45231;44.826;20.312;2023-04-24T03:35:34;13.18;;;7.28;;
59424;SDS011;45231;44.826;20.312;2023-04-24T03:38:01;10.38;;;7.03;;
59424;SDS011;45231;44.826;20.312;2023-04-24T03:40:29;12.23;;;7.40;;
59424;SDS011;45231;44.826;20.312;2023-04-24T03:42:55;11.43;;;7.13;;
59424;SDS011;45231;44.826;20.312;2023-04-24T03:45:21;10.73;;;7.20;;
59424;SDS011;45231;44.826;20.312;2023-04-24T03:47:47;14.40;;;7.28;;
59424;SDS011;45231;44.826;20.312;2023-04-24T03:50:13;9.90;;;6.95;;
59424;SDS011;45231;44.826;20.312;2023-04-24T03:52:39;12.93;;;7.32;;
59424;SDS011;45231;44.826;20.312;2023-04-24T03:55:06;11.20;;;6.90;;
59424;SDS011;45231;44.826;20.312;2023-04-24T03:57:32;10.90;;;6.95;;
59424;SDS011;45231;44.826;20.312;2023-04-24T03:59:58;14.83;;;6.90;;
59424;SDS011;45231;44.826;20.312;2023-04-24T04:02:24;11.02;;;7.45;;
59424;SDS011;45231;44.826;20.312;2023-04-24T04:04:50;10.63;;;7.40;;
59424;SDS011;45231;44.826;20.312;2023-04-24T04:07:16;10.83;;;7.00;;
59424;SDS011;45231;44.826;20.312;2023-04-24T04:09:42;11.20;;;7.60;;
59424;SDS011;45231;44.826;20.312;2023-04-24T04:12:09;10.20;;;6.93;;
59424;SDS011;45231;44.826;20.312;2023-04-24T04:14:35;14.03;;;7.13;;
59424;SDS011;45231;44.826;20.312;2023-04-24T04:17:01;9.50;;;6.70;;
59424;SDS011;45231;44.826;20.312;2023-04-24T04:19:27;15.00;;;7.38;;
59424;SDS011;45231;44.826;20.312;2023-04-24T04:21:53;12.55;;;7.25;;
59424;SDS011;45231;44.826;20.312;2023-04-24T04:24:21;15.38;;;7.20;;
59424;SDS011;45231;44.826;20.312;2023-04-24T04:26:47;14.98;;;7.68;;
59424;SDS011;45231;44.826;20.312;2023-04-24T04:29:16;14.70;;;8.00;;
59424;SDS011;45231;44.826;20.312;2023-04-24T04:31:43;11.65;;;6.57;;
59424;SDS011;45231;44.826;20.312;2023-04-24T04:34:09;12.57;;;7.35;;
59424;SDS011;45231;44.826;20.312;2023-04-24T04:36:36;10.20;;;6.38;;
59424;SDS011;45231;44.826;20.312;2023-04-24T04:39:05;13.07;;;7.25;;
59424;SDS011;45231;44.826;20.312;2023-04-24T04:41:31;12.43;;;6.82;;
59424;SDS011;45231;44.826;20.312;2023-04-24T04:44:00;12.52;;;6.95;;
59424;SDS011;45231;44.826;20.312;2023-04-24T04:46:26;9.77;;;6.68;;
59424;SDS011;45231;44.826;20.312;2023-04-24T04:48:53;11.98;;;7.10;;
59424;SDS011;45231;44.826;20.312;2023-04-24T04:51:19;11.13;;;6.80;;
59424;SDS011;45231;44.826;20.312;2023-04-24T04:53:45;15.40;;;8.18;;
59424;SDS011;45231;44.826;20.312;2023-04-24T04:56:11;13.48;;;8.65;;
59424;SDS011;45231;44.826;20.312;2023-04-24T04:58:38;17.40;;;9.02;;
59424;SDS011;45231;44.826;20.312;2023-04-24T05:01:04;13.90;;;8.88;;
59424;SDS011;45231;44.826;20.312;2023-04-24T05:03:30;13.53;;;9.00;;
59424;SDS011;45231;44.826;20.312;2023-04-24T05:05:57;14.37;;;9.47;;
59424;SDS011;45231;44.826;20.312;2023-04-24T05:08:23;15.98;;;9.48;;
59424;SDS011;45231;44.826;20.312;2023-04-24T05:10:49;14.50;;;10.35;;
59424;SDS011;45231;44.826;20.312;2023-04-24T05:13:15;15.80;;;10.40;;
59424;SDS011;45231;44.826;20.312;2023-04-24T05:15:41;14.98;;;9.88;;
59424;SDS011;45231;44.826;20.312;2023-04-24T05:18:07;17.00;;;10.27;;
59424;SDS011;45231;44.826;20.312;2023-04-24T05:20:33;14.73;;;9.90;;
59424;SDS011;45231;44.826;20.312;2023-04-24T05:22:59;20.80;;;11.07;;
59424;SDS011;45231;44.826;20.312;2023-04-24T05:25:25;14.48;;;10.27;;
59424;SDS011;45231;44.826;20.312;2023-04-24T05:27:52;16.30;;;10.73;;
59424;SDS011;45231;44.826;20.312;2023-04-24T05:30:18;19.90;;;12.77;;
59424;SDS011;45231;44.826;20.312;2023-04-24T05:32:44;14.68;;;10.60;;
59424;SDS011;45231;44.826;20.312;2023-04-24T05:35:11;15.05;;;11.23;;
59424;SDS011;45231;44.826;20.312;2023-04-24T05:37:37;16.02;;;11.05;;
59424;SDS011;45231;44.826;20.312;2023-04-24T05:40:03;17.10;;;11.35;;
59424;SDS011;45231;44.826;20.312;2023-04-24T05:42:30;15.00;;;11.25;;
59424;SDS011;45231;44.826;20.312;2023-04-24T05:44:57;15.50;;;11.35;;
59424;SDS011;45231;44.826;20.312;2023-04-24T05:47:23;14.25;;;10.60;;
59424;SDS011;45231;44.826;20.312;2023-04-24T05:49:49;16.88;;;11.57;;
59424;SDS011;45231;44.826;20.312;2023-04-24T05:52:15;16.27;;;10.90;;
59424;SDS011;45231;44.826;20.312;2023-04-24T05:54:41;13.90;;;10.25;;
59424;SDS011;45231;44.826;20.312;2023-04-24T05:57:07;15.53;;;9.97;;
59424;SDS011;45231;44.826;20.312;2023-04-24T05:59:35;14.00;;;9.50;;
59424;SDS011;45231;44.826;20.312;2023-04-24T06:02:01;14.65;;;9.00;;
59424;SDS011;45231;44.826;20.312;2023-04-24T06:04:27;14.20;;;8.30;;
59424;SDS011;45231;44.826;20.312;2023-04-24T06:06:53;12.07;;;7.78;;
59424;SDS011;45231;44.826;20.312;2023-04-24T06:09:23;11.20;;;7.53;;
59424;SDS011;45231;44.826;20.312;2023-04-24T06:11:50;11.38;;;8.13;;
59424;SDS011;45231;44.826;20.312;2023-04-24T06:14:19;13.88;;;8.38;;
59424;SDS011;45231;44.826;20.312;2023-04-24T06:19:12;16.27;;;7.75;;
59424;SDS011;45231;44.826;20.312;2023-04-24T06:21:38;14.48;;;8.68;;
59424;SDS011;45231;44.826;20.312;2023-04-24T06:24:04;16.80;;;9.23;;
59424;SDS011;45231;44.826;20.312;2023-04-24T06:26:30;13.38;;;8.90;;
59424;SDS011;45231;44.826;20.312;2023-04-24T06:28:56;13.30;;;9.48;;
59424;SDS011;45231;44.826;20.312;2023-04-24T06:31:24;13.50;;;9.30;;
59424;SDS011;45231;44.826;20.312;2023-04-24T06:33:50;13.82;;;9.73;;
59424;SDS011;45231;44.826;20.312;2023-04-24T06:36:16;15.18;;;9.48;;
59424;SDS011;45231;44.826;20.312;2023-04-24T06:38:42;13.02;;;8.65;;
59424;SDS011;45231;44.826;20.312;2023-04-24T06:41:09;10.80;;;8.38;;
59424;SDS011;45231;44.826;20.312;2023-04-24T06:43:35;13.80;;;8.25;;
59424;SDS011;45231;44.826;20.312;2023-04-24T06:46:01;13.55;;;8.85;;
59424;SDS011;45231;44.826;20.312;2023-04-24T06:48:28;11.70;;;8.52;;
59424;SDS011;45231;44.826;20.312;2023-04-24T06:50:54;10.05;;;7.57;;
59424;SDS011;45231;44.826;20.312;2023-04-24T06:53:20;12.82;;;8.43;;
59424;SDS011;45231;44.826;20.312;2023-04-24T06:55:46;13.43;;;7.88;;
59424;SDS011;45231;44.826;20.312;2023-04-24T07:00:40;12.27;;;7.57;;
59424;SDS011;45231;44.826;20.312;2023-04-24T07:03:06;13.95;;;7.40;;
59424;SDS011;45231;44.826;20.312;2023-04-24T07:05:32;10.38;;;7.30;;
59424;SDS011;45231;44.826;20.312;2023-04-24T07:08:03;12.35;;;7.93;;
59424;SDS011;45231;44.826;20.312;2023-04-24T07:10:29;12.75;;;7.38;;
59424;SDS011;45231;44.826;20.312;2023-04-24T07:12:55;12.05;;;7.28;;
59424;SDS011;45231;44.826;20.312;2023-04-24T07:17:48;12.57;;;7.97;;
59424;SDS011;45231;44.826;20.312;2023-04-24T07:20:14;11.73;;;7.22;;
59424;SDS011;45231;44.826;20.312;2023-04-24T07:22:40;9.77;;;6.97;;
59424;SDS011;45231;44.826;20.312;2023-04-24T07:25:07;10.25;;;6.72;;
59424;SDS011;45231;44.826;20.312;2023-04-24T07:29:59;11.10;;;6.20;;
59424;SDS011;45231;44.826;20.312;2023-04-24T07:32:25;8.30;;;5.93;;
59424;SDS011;45231;44.826;20.312;2023-04-24T07:34:51;10.75;;;6.47;;
59424;SDS011;45231;44.826;20.312;2023-04-24T07:37:18;12.02;;;6.20;;
59424;SDS011;45231;44.826;20.312;2023-04-24T07:39:44;11.35;;;6.38;;
59424;SDS011;45231;44.826;20.312;2023-04-24T07:42:10;8.38;;;5.68;;
59424;SDS011;45231;44.826;20.312;2023-04-24T07:44:36;9.13;;;5.57;;
59424;SDS011;45231;44.826;20.312;2023-04-24T07:47:02;9.93;;;5.60;;
59424;SDS011;45231;44.826;20.312;2023-04-24T07:49:28;8.60;;;5.72;;
59424;SDS011;45231;44.826;20.312;2023-04-24T07:51:54;11.38;;;5.60;;
59424;SDS011;45231;44.826;20.312;2023-04-24T07:54:20;11.57;;;5.47;;
59424;SDS011;45231;44.826;20.312;2023-04-24T07:56:46;8.15;;;5.35;;
59424;SDS011;45231;44.826;20.312;2023-04-24T07:59:12;12.18;;;6.28;;
59424;SDS011;45231;44.826;20.312;2023-04-24T08:01:38;7.45;;;5.50;;
59424;SDS011;45231;44.826;20.312;2023-04-24T08:04:04;11.57;;;5.93;;
59424;SDS011;45231;44.826;20.312;2023-04-24T08:06:30;9.88;;;6.18;;
59424;SDS011;45231;44.826;20.312;2023-04-24T08:08:57;10.85;;;6.32;;
59424;SDS011;45231;44.826;20.312;2023-04-24T08:13:49;11.57;;;6.10;;
59424;SDS011;45231;44.826;20.312;2023-04-24T08:16:15;10.27;;;6.47;;
59424;SDS011;45231;44.826;20.312;2023-04-24T08:18:41;10.07;;;7.35;;
59424;SDS011;45231;44.826;20.312;2023-04-24T08:21:07;10.20;;;6.80;;
59424;SDS011;45231;44.826;20.312;2023-04-24T08:23:33;12.30;;;7.20;;
59424;SDS011;45231;44.826;20.312;2023-04-24T08:25:59;15.07;;;7.00;;
59424;SDS011;45231;44.826;20.312;2023-04-24T08:28:25;12.25;;;7.25;;
59424;SDS011;45231;44.826;20.312;2023-04-24T08:30:51;14.38;;;7.45;;
59424;SDS011;45231;44.826;20.312;2023-04-24T08:33:20;10.70;;;6.97;;
59424;SDS011;45231;44.826;20.312;2023-04-24T08:35:46;11.15;;;7.57;;
59424;SDS011;45231;44.826;20.312;2023-04-24T08:38:12;12.95;;;7.25;;
59424;SDS011;45231;44.826;20.312;2023-04-24T08:40:38;13.98;;;7.65;;
59424;SDS011;45231;44.826;20.312;2023-04-24T08:45:32;11.02;;;6.70;;
59424;SDS011;45231;44.826;20.312;2023-04-24T08:47:58;10.73;;;6.25;;
59424;SDS011;45231;44.826;20.312;2023-04-24T08:50:25;13.18;;;6.40;;
59424;SDS011;45231;44.826;20.312;2023-04-24T08:52:52;13.35;;;6.35;;
59424;SDS011;45231;44.826;20.312;2023-04-24T08:55:19;11.65;;;6.10;;
59424;SDS011;45231;44.826;20.312;2023-04-24T08:57:45;11.35;;;6.40;;
59424;SDS011;45231;44.826;20.312;2023-04-24T09:00:15;11.73;;;6.68;;
59424;SDS011;45231;44.826;20.312;2023-04-24T09:05:11;12.18;;;7.05;;
59424;SDS011;45231;44.826;20.312;2023-04-24T09:07:39;12.20;;;7.00;;
59424;SDS011;45231;44.826;20.312;2023-04-24T09:10:07;11.25;;;7.50;;
59424;SDS011;45231;44.826;20.312;2023-04-24T09:12:34;12.48;;;6.97;;
59424;SDS011;45231;44.826;20.312;2023-04-24T09:15:00;12.52;;;7.32;;
59424;SDS011;45231;44.826;20.312;2023-04-24T09:17:29;11.55;;;7.32;;
59424;SDS011;45231;44.826;20.312;2023-04-24T09:19:56;11.15;;;6.80;;
59424;SDS011;45231;44.826;20.312;2023-04-24T09:22:22;14.45;;;7.75;;
59424;SDS011;45231;44.826;20.312;2023-04-24T09:24:48;13.00;;;7.53;;
59424;SDS011;45231;44.826;20.312;2023-04-24T09:27:14;10.02;;;7.32;;
59424;SDS011;45231;44.826;20.312;2023-04-24T09:29:54;13.60;;;7.57;;
59424;SDS011;45231;44.826;20.312;2023-04-24T09:32:21;12.50;;;7.47;;
59424;SDS011;45231;44.826;20.312;2023-04-24T09:35:04;11.60;;;7.53;;
59424;SDS011;45231;44.826;20.312;2023-04-24T09:37:34;15.20;;;8.23;;
59424;SDS011;45231;44.826;20.312;2023-04-24T09:42:39;11.50;;;6.55;;
59424;SDS011;45231;44.826;20.312;2023-04-24T09:47:35;11.07;;;7.75;;
59424;SDS011;45231;44.826;20.312;2023-04-24T09:50:08;11.68;;;7.70;;
59424;SDS011;45231;44.826;20.312;2023-04-24T09:52:34;12.05;;;7.68;;
59424;SDS011;45231;44.826;20.312;2023-04-24T09:55:00;12.45;;;7.40;;
59424;SDS011;45231;44.826;20.312;2023-04-24T09:57:27;11.45;;;7.70;;
59424;SDS011;45231;44.826;20.312;2023-04-24T09:59:53;11.82;;;8.55;;
59424;SDS011;45231;44.826;20.312;2023-04-24T10:02:20;12.60;;;8.43;;
59424;SDS011;45231;44.826;20.312;2023-04-24T10:04:55;12.15;;;8.52;;
59424;SDS011;45231;44.826;20.312;2023-04-24T10:07:22;12.98;;;9.05;;
59424;SDS011;45231;44.826;20.312;2023-04-24T10:09:48;13.30;;;9.85;;
59424;SDS011;45231;44.826;20.312;2023-04-24T10:12:14;12.18;;;9.25;;
59424;SDS011;45231;44.826;20.312;2023-04-24T10:14:40;12.70;;;9.57;;
59424;SDS011;45231;44.826;20.312;2023-04-24T10:17:06;13.60;;;9.15;;
59424;SDS011;45231;44.826;20.312;2023-04-24T10:19:33;12.07;;;8.82;;
59424;SDS011;45231;44.826;20.312;2023-04-24T10:22:00;11.32;;;8.75;;
59424;SDS011;45231;44.826;20.312;2023-04-24T10:24:26;12.75;;;8.27;;
59424;SDS011;45231;44.826;20.312;2023-04-24T10:26:54;11.88;;;8.18;;
59424;SDS011;45231;44.826;20.312;2023-04-24T10:29:21;13.10;;;9.50;;
59424;SDS011;45231;44.826;20.312;2023-04-24T10:31:48;12.98;;;9.13;;
59424;SDS011;45231;44.826;20.312;2023-04-24T10:34:14;12.57;;;8.38;;
59424;SDS011;45231;44.826;20.312;2023-04-24T10:36:53;13.23;;;8.48;;
59424;SDS011;45231;44.826;20.312;2023-04-24T10:39:20;11.88;;;8.45;;
59424;SDS011;45231;44.826;20.312;2023-04-24T10:41:48;11.40;;;8.10;;
59424;SDS011;45231;44.826;20.312;2023-04-24T10:44:15;11.90;;;7.90;;
59424;SDS011;45231;44.826;20.312;2023-04-24T10:46:45;12.32;;;8.77;;
59424;SDS011;45231;44.826;20.312;2023-04-24T10:49:13;12.93;;;8.88;;
59424;SDS011;45231;44.826;20.312;2023-04-24T10:51:49;12.15;;;8.55;;
59424;SDS011;45231;44.826;20.312;2023-04-24T10:56:49;12.25;;;8.02;;
59424;SDS011;45231;44.826;20.312;2023-04-24T10:59:23;11.75;;;7.95;;
59424;SDS011;45231;44.826;20.312;2023-04-24T11:01:54;12.63;;;8.27;;
59424;SDS011;45231;44.826;20.312;2023-04-24T11:04:28;11.43;;;8.68;;
59424;SDS011;45231;44.826;20.312;2023-04-24T11:06:55;13.55;;;8.30;;
59424;SDS011;45231;44.826;20.312;2023-04-24T11:09:21;15.30;;;8.88;;
59424;SDS011;45231;44.826;20.312;2023-04-24T11:11:47;10.68;;;7.18;;
59424;SDS011;45231;44.826;20.312;2023-04-24T11:14:14;12.93;;;8.73;;
59424;SDS011;45231;44.826;20.312;2023-04-24T11:16:44;15.77;;;9.40;;
59424;SDS011;45231;44.826;20.312;2023-04-24T11:26:55;15.95;;;9.18;;
59424;SDS011;45231;44.826;20.312;2023-04-24T11:29:22;11.98;;;7.97;;
59424;SDS011;45231;44.826;20.312;2023-04-24T11:31:48;12.68;;;7.72;;
59424;SDS011;45231;44.826;20.312;2023-04-24T11:34:16;9.63;;;5.53;;
59424;SDS011;45231;44.826;20.312;2023-04-24T11:39:08;9.82;;;5.05;;
59424;SDS011;45231;44.826;20.312;2023-04-24T11:41:36;11.10;;;5.70;;
59424;SDS011;45231;44.826;20.312;2023-04-24T11:44:02;8.15;;;5.40;;
59424;SDS011;45231;44.826;20.312;2023-04-24T11:46:29;10.10;;;5.80;;
59424;SDS011;45231;44.826;20.312;2023-04-24T11:48:56;11.20;;;5.63;;
59424;SDS011;45231;44.826;20.312;2023-04-24T11:51:23;11.73;;;5.97;;
59424;SDS011;45231;44.826;20.312;2023-04-24T11:53:50;9.43;;;6.35;;
59424;SDS011;45231;44.826;20.312;2023-04-24T11:56:17;9.20;;;5.95;;
59424;SDS011;45231;44.826;20.312;2023-04-24T11:58:44;8.30;;;4.88;;
59424;SDS011;45231;44.826;20.312;2023-04-24T12:01:12;8.30;;;5.07;;
59424;SDS011;45231;44.826;20.312;2023-04-24T12:03:38;9.18;;;5.10;;
59424;SDS011;45231;44.826;20.312;2023-04-24T12:06:05;7.53;;;4.18;;
59424;SDS011;45231;44.826;20.312;2023-04-24T12:08:32;10.90;;;4.85;;
59424;SDS011;45231;44.826;20.312;2023-04-24T12:11:02;10.73;;;5.57;;
59424;SDS011;45231;44.826;20.312;2023-04-24T12:13:29;10.52;;;6.22;;
59424;SDS011;45231;44.826;20.312;2023-04-24T12:15:59;9.70;;;5.55;;
59424;SDS011;45231;44.826;20.312;2023-04-24T12:18:25;9.68;;;6.05;;
59424;SDS011;45231;44.826;20.312;2023-04-24T12:20:51;9.10;;;5.90;;
59424;SDS011;45231;44.826;20.312;2023-04-24T12:26:07;8.90;;;5.32;;
59424;SDS011;45231;44.826;20.312;2023-04-24T12:28:36;9.65;;;5.65;;
59424;SDS011;45231;44.826;20.312;2023-04-24T12:31:02;8.55;;;6.05;;
59424;SDS011;45231;44.826;20.312;2023-04-24T12:33:32;11.43;;;5.90;;
59424;SDS011;45231;44.826;20.312;2023-04-24T12:35:58;12.27;;;6.50;;
59424;SDS011;45231;44.826;20.312;2023-04-24T12:38:25;12.32;;;7.07;;
59424;SDS011;45231;44.826;20.312;2023-04-24T12:41:04;13.07;;;7.10;;
59424;SDS011;45231;44.826;20.312;2023-04-24T12:43:31;12.98;;;7.28;;
59424;SDS011;45231;44.826;20.312;2023-04-24T12:45:57;10.10;;;7.05;;
59424;SDS011;45231;44.826;20.312;2023-04-24T12:48:24;12.52;;;7.72;;
59424;SDS011;45231;44.826;20.312;2023-04-24T12:50:50;11.50;;;7.80;;
59424;SDS011;45231;44.826;20.312;2023-04-24T12:53:16;14.40;;;8.40;;
59424;SDS011;45231;44.826;20.312;2023-04-24T12:55:42;11.85;;;7.00;;
59424;SDS011;45231;44.826;20.312;2023-04-24T12:58:09;12.35;;;7.38;;
59424;SDS011;45231;44.826;20.312;2023-04-24T13:00:35;10.60;;;7.15;;
59424;SDS011;45231;44.826;20.312;2023-04-24T13:03:02;9.93;;;6.57;;
59424;SDS011;45231;44.826;20.312;2023-04-24T13:05:28;13.40;;;7.18;;
59424;SDS011;45231;44.826;20.312;2023-04-24T13:07:55;11.25;;;6.20;;
59424;SDS011;45231;44.826;20.312;2023-04-24T13:10:21;10.10;;;5.97;;
59424;SDS011;45231;44.826;20.312;2023-04-24T13:12:47;10.55;;;6.43;;
59424;SDS011;45231;44.826;20.312;2023-04-24T13:15:13;12.88;;;6.03;;
59424;SDS011;45231;44.826;20.312;2023-04-24T13:17:39;8.52;;;4.65;;
59424;SDS011;45231;44.826;20.312;2023-04-24T13:20:05;8.90;;;4.18;;
59424;SDS011;45231;44.826;20.312;2023-04-24T13:22:31;6.93;;;3.90;;
59424;SDS011;45231;44.826;20.312;2023-04-24T13:24:57;10.45;;;5.07;;
59424;SDS011;45231;44.826;20.312;2023-04-24T13:27:24;9.77;;;4.78;;
59424;SDS011;45231;44.826;20.312;2023-04-24T13:29:50;9.05;;;4.60;;
59424;SDS011;45231;44.826;20.312;2023-04-24T13:32:16;7.63;;;4.60;;
59424;SDS011;45231;44.826;20.312;2023-04-24T13:34:42;9.95;;;4.93;;
59424;SDS011;45231;44.826;20.312;2023-04-24T13:37:09;8.00;;;4.60;;
59424;SDS011;45231;44.826;20.312;2023-04-24T13:39:35;8.93;;;4.65;;
59424;SDS011;45231;44.826;20.312;2023-04-24T13:42:01;8.23;;;4.53;;
59424;SDS011;45231;44.826;20.312;2023-04-24T13:44:27;8.27;;;4.75;;
59424;SDS011;45231;44.826;20.312;2023-04-24T13:46:54;8.95;;;4.53;;
59424;SDS011;45231;44.826;20.312;2023-04-24T13:49:22;7.28;;;4.40;;
59424;SDS011;45231;44.826;20.312;2023-04-24T13:51:50;7.70;;;4.28;;
59424;SDS011;45231;44.826;20.312;2023-04-24T13:54:16;8.40;;;5.05;;
59424;SDS011;45231;44.826;20.312;2023-04-24T13:56:42;9.60;;;4.05;;
59424;SDS011;45231;44.826;20.312;2023-04-24T13:59:08;9.45;;;4.93;;
59424;SDS011;45231;44.826;20.312;2023-04-24T14:01:34;8.82;;;4.25;;
59424;SDS011;45231;44.826;20.312;2023-04-24T14:04:01;6.68;;;4.03;;
59424;SDS011;45231;44.826;20.312;2023-04-24T14:06:27;8.52;;;4.18;;
59424;SDS011;45231;44.826;20.312;2023-04-24T14:08:53;8.10;;;4.00;;
59424;SDS011;45231;44.826;20.312;2023-04-24T14:11:19;7.28;;;4.35;;
59424;SDS011;45231;44.826;20.312;2023-04-24T14:13:45;7.65;;;3.67;;
59424;SDS011;45231;44.826;20.312;2023-04-24T14:16:12;10.20;;;4.40;;
59424;SDS011;45231;44.826;20.312;2023-04-24T14:18:39;6.63;;;3.55;;
59424;SDS011;45231;44.826;20.312;2023-04-24T14:21:05;5.82;;;3.28;;
59424;SDS011;45231;44.826;20.312;2023-04-24T14:23:31;6.45;;;3.70;;
59424;SDS011;45231;44.826;20.312;2023-04-24T14:25:57;5.80;;;3.55;;
59424;SDS011;45231;44.826;20.312;2023-04-24T14:30:50;8.23;;;3.90;;
59424;SDS011;45231;44.826;20.312;2023-04-24T14:33:17;6.57;;;3.47;;
59424;SDS011;45231;44.826;20.312;2023-04-24T14:35:43;6.28;;;3.30;;
59424;SDS011;45231;44.826;20.312;2023-04-24T14:40:36;6.03;;;3.42;;
59424;SDS011;45231;44.826;20.312;2023-04-24T14:45:28;7.10;;;3.08;;
59424;SDS011;45231;44.826;20.312;2023-04-24T14:47:54;7.90;;;3.00;;
59424;SDS011;45231;44.826;20.312;2023-04-24T14:52:46;7.05;;;3.67;;
59424;SDS011;45231;44.826;20.312;2023-04-24T14:55:12;5.88;;;3.20;;
59424;SDS011;45231;44.826;20.312;2023-04-24T15:00:05;8.50;;;3.40;;
59424;SDS011;45231;44.826;20.312;2023-04-24T15:02:34;5.90;;;3.53;;
59424;SDS011;45231;44.826;20.312;2023-04-24T15:05:02;5.70;;;3.38;;
59424;SDS011;45231;44.826;20.312;2023-04-24T15:09:56;7.95;;;3.60;;
59424;SDS011;45231;44.826;20.312;2023-04-24T15:12:22;7.30;;;3.70;;